Terminal Aerodrome Forecast
Issued by NWS

Home | Current Version | Previous Version | Text Only | Print | Product List | Glossary On
Versions: 1 2 3 4 5 6 7 8 9 10 11 12 13 14 15 16
000
FTAK31 PANC 040538
TAFAGK
TAF
PAGK 040538Z 0406/0506 34010KT P6SM SCT060 BKN100
      TEMPO 0406/0409 34010G17KT
     FM041900 01010G18KT P6SM SKC=

USA.gov is the U.S. government's official web portal to all federal, state and local government web resources and services.